Dalmeny, Canada
Current Conditions -  °F | °C
As of 12:00 PM on Monday 26 Jan 2015 (Local Time) from CYXE Reporting Station
Broken Clouds Broken Clouds  
Wind Chill: 32°   Ceiling: 9600
Heat Index: 36°   Visibility: 15mi
Dew Point: 30°   Wind: 5mph
Humidity: 81%   Direction: 230°SW
Pressure: 29.9"   Gusts: NA
Location:  52.33°N, 106.78°W
Report Text: CYXE 261800Z 23004KT 15SM SCT055 BKN096 02/M01 A2990 RMK SC3AC4 SLP151
Loading
Personal Weather Stations






























Interactive Weather Map New forecast layout! Learn more

10-Day Weather Forecast

Advertisements
Track Severe Weather on mobile